Terminal Aerodrome Forecast
Issued by NWS Mt. Holly, NJ

Home | Current Version | Previous Version | Text Only | Print | Product List | Glossary On
Versions: 1 2 3 4 5 6 7 8 9 10 11 12 13 14 15 16 17 18 19 20
964
FTUS41 KPHI 242342
TAFTTN
TAF
KTTN 242342Z 2500/2524 11005KT P6SM BKN100
     FM250100 VRB03KT P6SM FEW100
     FM251400 29007KT P6SM FEW250
     FM251900 26010KT P6SM SCT250=

USA.gov is the U.S. government's official web portal to all federal, state and local government web resources and services.